createdAt,value
2022-08-25T00:05:46.384Z,5.30
2022-08-25T00:11:03.033Z,3.65
2022-08-25T00:16:08.574Z,4.15
2022-08-25T00:21:11.170Z,3.22
2022-08-25T00:26:15.609Z,4.50
2022-08-25T00:31:21.854Z,2.70
2022-08-25T00:36:24.467Z,7.05
2022-08-25T00:41:27.290Z,3.17
2022-08-25T00:51:39.951Z,4.85
2022-08-25T00:56:43.051Z,7.43
2022-08-25T01:01:47.176Z,3.53
2022-08-25T01:06:50.613Z,3.38
2022-08-25T01:11:53.959Z,6.20
2022-08-25T01:16:58.726Z,3.10
2022-08-25T01:22:02.760Z,4.85
2022-08-25T01:27:06.614Z,2.95
2022-08-25T01:32:13.200Z,5.28
2022-08-25T01:37:19.109Z,3.65
2022-08-25T01:42:34.481Z,7.28
2022-08-25T01:47:38.285Z,3.78
2022-08-25T01:52:50.699Z,4.03
2022-08-25T01:57:53.501Z,4.97
2022-08-25T02:08:00.094Z,4.47
2022-08-25T02:13:02.770Z,5.05
2022-08-25T02:18:05.460Z,4.18
2022-08-25T02:28:12.720Z,4.25
2022-08-25T02:33:15.266Z,3.90
2022-08-25T02:38:19.244Z,3.38
2022-08-25T02:43:22.049Z,4.05
2022-08-25T02:53:29.670Z,4.38
2022-08-25T02:58:32.210Z,6.03
2022-08-25T03:03:39.232Z,4.00
2022-08-25T03:08:44.794Z,5.38
2022-08-25T03:13:47.765Z,2.90
2022-08-25T03:18:50.376Z,4.30
2022-08-25T03:23:55.356Z,3.08
2022-08-25T03:28:58.406Z,8.35
2022-08-25T03:34:01.530Z,4.68
2022-08-25T03:39:08.302Z,5.25
2022-08-25T03:44:11.245Z,5.40
2022-08-25T03:49:16.875Z,6.95
2022-08-25T03:54:23.876Z,3.65
2022-08-25T03:59:27.119Z,3.40
2022-08-25T04:04:29.757Z,5.53
2022-08-25T04:09:36.813Z,5.55
2022-08-25T04:14:39.527Z,6.03
2022-08-25T04:19:42.111Z,6.18
2022-08-25T04:24:46.992Z,3.58
2022-08-25T04:29:49.524Z,3.83
2022-08-25T04:34:52.369Z,6.15
2022-08-25T04:44:58.742Z,6.28
2022-08-25T04:50:01.232Z,6.10
2022-08-25T04:55:05.734Z,6.53
2022-08-25T05:00:09.052Z,4.38
2022-08-25T05:05:11.556Z,4.00
2022-08-25T05:10:15.402Z,5.18
2022-08-25T05:15:35.856Z,5.13
2022-08-25T05:20:38.596Z,4.32
2022-08-25T05:25:42.758Z,5.97
2022-08-25T05:30:45.825Z,5.28
2022-08-25T05:35:48.452Z,7.90
2022-08-25T05:40:58.608Z,6.47
2022-08-25T05:46:01.511Z,4.85
2022-08-25T05:56:09.704Z,6.63
2022-08-25T06:01:38.989Z,5.40
2022-08-25T06:06:41.692Z,6.78
2022-08-25T06:11:46.179Z,6.20
2022-08-25T06:16:51.449Z,6.72
2022-08-25T06:21:56.151Z,6.25
2022-08-25T06:27:00.455Z,11.23
2022-08-25T06:32:03.126Z,6.43
2022-08-25T06:42:10.666Z,10.02
2022-08-25T06:47:14.742Z,13.75
2022-08-25T06:52:17.503Z,11.50
2022-08-25T06:57:21.372Z,14.00
2022-08-25T07:02:23.982Z,13.50
2022-08-25T07:07:26.636Z,12.15
2022-08-25T07:12:47.146Z,7.70
2022-08-25T07:17:49.959Z,10.35
2022-08-25T07:22:53.019Z,6.82
2022-08-25T07:27:58.849Z,5.78
2022-08-25T07:33:05.897Z,6.53
2022-08-25T07:43:34.333Z,3.80
2022-08-25T07:48:38.479Z,3.67
2022-08-25T07:53:42.478Z,8.30
2022-08-25T07:58:47.703Z,5.07
2022-08-25T08:03:51.672Z,3.75
2022-08-25T08:08:57.869Z,3.25
2022-08-25T08:14:03.128Z,3.22
2022-08-25T08:19:06.071Z,5.07
2022-08-25T08:24:19.789Z,5.63
2022-08-25T08:29:28.851Z,3.72
2022-08-25T08:34:32.535Z,5.38
2022-08-25T08:39:35.543Z,4.63
2022-08-25T08:44:51.419Z,3.10
2022-08-25T08:50:03.811Z,5.35
2022-08-25T08:55:13.484Z,6.82
2022-08-25T09:00:18.619Z,8.85
2022-08-25T09:05:25.174Z,4.35
2022-08-25T09:10:39.578Z,4.22
2022-08-25T09:16:09.011Z,5.85
2022-08-25T09:21:18.434Z,4.25
2022-08-25T09:26:30.525Z,4.70
2022-08-25T09:31:38.650Z,5.25
2022-08-25T09:36:41.271Z,5.22
2022-08-25T09:41:47.625Z,4.72
2022-08-25T09:47:04.679Z,3.83
2022-08-25T09:52:38.559Z,5.63
2022-08-25T09:57:47.551Z,6.32
2022-08-25T10:03:08.024Z,4.10
2022-08-25T10:08:16.377Z,6.18
2022-08-25T10:13:36.708Z,4.22
2022-08-25T10:18:40.707Z,4.80
2022-08-25T10:23:49.617Z,4.78
2022-08-25T10:29:04.745Z,2.40
2022-08-25T10:34:22.907Z,4.70
2022-08-25T10:39:40.743Z,4.45
2022-08-25T10:45:13.507Z,3.65
2022-08-25T10:50:29.308Z,3.33
2022-08-25T10:55:40.557Z,4.60
2022-08-25T11:00:52.968Z,4.22
2022-08-25T11:06:02.164Z,2.95
2022-08-25T11:11:10.593Z,3.38
2022-08-25T11:16:18.928Z,3.63
2022-08-25T11:21:32.670Z,3.13
2022-08-25T11:26:42.468Z,4.13
2022-08-25T11:31:53.069Z,2.97
2022-08-25T11:42:17.567Z,5.75
2022-08-25T11:47:36.160Z,4.50
2022-08-25T11:52:58.715Z,3.28
2022-08-25T11:58:31.585Z,3.70
2022-08-25T12:03:52.107Z,4.05
2022-08-25T12:09:18.542Z,3.43
2022-08-25T12:14:45.502Z,2.95
2022-08-25T12:19:51.362Z,3.45
2022-08-25T12:25:03.389Z,5.68
2022-08-25T12:30:20.968Z,4.95
2022-08-25T12:35:30.473Z,3.58
2022-08-25T12:40:54.136Z,3.30
2022-08-25T12:46:37.636Z,3.22
2022-08-25T12:51:53.669Z,4.00
2022-08-25T12:57:01.726Z,3.42
2022-08-25T13:02:51.789Z,2.70
2022-08-25T13:08:04.118Z,4.80
2022-08-25T13:13:13.436Z,2.92
2022-08-25T13:18:23.005Z,4.57
2022-08-25T13:23:29.186Z,5.55
2022-08-25T13:28:36.178Z,3.17
2022-08-25T13:33:38.798Z,4.90
2022-08-25T13:38:42.755Z,3.78
2022-08-25T13:43:51.434Z,4.20
2022-08-25T13:49:04.089Z,3.00
2022-08-25T13:54:09.025Z,3.72
2022-08-25T13:59:23.913Z,3.30
2022-08-25T14:04:33.593Z,4.75
2022-08-25T14:09:42.450Z,3.30
2022-08-25T14:14:59.092Z,2.95
2022-08-25T14:20:01.998Z,4.57
2022-08-25T14:25:04.800Z,4.43
2022-08-25T14:30:10.474Z,5.43
2022-08-25T14:35:13.250Z,3.45
2022-08-25T14:40:20.592Z,2.67
2022-08-25T14:45:24.586Z,3.47
2022-08-25T14:50:27.161Z,4.93
2022-08-25T14:55:31.774Z,7.05
2022-08-25T15:00:41.036Z,3.90
2022-08-25T15:05:43.782Z,4.15
2022-08-25T15:10:46.593Z,3.47
2022-08-25T15:15:52.377Z,3.58
2022-08-25T15:20:57.147Z,2.53
2022-08-25T15:25:59.863Z,2.72
2022-08-25T15:31:03.783Z,3.72
2022-08-25T15:36:11.260Z,3.50
2022-08-25T15:41:18.049Z,4.57
2022-08-25T15:46:23.866Z,3.42
2022-08-25T15:51:27.240Z,3.40
2022-08-25T15:56:29.780Z,2.97
2022-08-25T16:01:33.781Z,4.05
2022-08-25T16:06:36.943Z,4.53
2022-08-25T16:11:39.558Z,3.30
2022-08-25T16:16:43.566Z,3.20
2022-08-25T16:21:47.965Z,2.88
2022-08-25T16:26:50.572Z,3.03
2022-08-25T16:31:55.746Z,3.42
2022-08-25T16:36:59.541Z,3.72
2022-08-25T16:42:02.431Z,2.20
2022-08-25T16:47:08.796Z,5.05
2022-08-25T16:52:28.316Z,4.25
2022-08-25T16:57:31.275Z,4.95
2022-08-25T17:02:35.134Z,3.25
2022-08-25T17:07:38.273Z,2.70
2022-08-25T17:12:40.830Z,3.13
2022-08-25T17:17:44.995Z,2.35
2022-08-25T17:22:47.726Z,3.03
2022-08-25T17:27:50.253Z,4.45
2022-08-25T17:32:54.120Z,2.97
2022-08-25T17:37:57.003Z,3.85
2022-08-25T17:42:59.505Z,4.88
2022-08-25T17:48:03.826Z,4.40
2022-08-25T17:53:06.457Z,2.63
2022-08-25T17:58:09.502Z,2.78
2022-08-25T18:03:13.440Z,2.58
2022-08-25T18:08:17.966Z,5.30
2022-08-25T18:13:21.682Z,6.78
2022-08-25T18:18:27.194Z,6.38
2022-08-25T18:23:29.694Z,4.78
2022-08-25T18:28:32.827Z,3.80
2022-08-25T18:33:41.525Z,3.55
2022-08-25T18:39:02.022Z,4.13
2022-08-25T18:44:05.167Z,5.45
2022-08-25T18:49:09.550Z,4.93
2022-08-25T18:54:23.171Z,3.85
2022-08-25T18:59:26.502Z,4.05
2022-08-25T19:04:32.078Z,7.63
2022-08-25T19:09:34.746Z,3.78
2022-08-25T19:14:38.042Z,4.15
2022-08-25T19:19:41.896Z,5.28
2022-08-25T19:24:44.852Z,4.55
2022-08-25T19:29:47.509Z,7.15
2022-08-25T19:34:54.673Z,5.32
2022-08-25T19:39:58.115Z,7.93
2022-08-25T19:45:00.759Z,7.65
2022-08-25T19:55:08.947Z,6.30
2022-08-25T20:00:15.020Z,6.57
2022-08-25T20:05:23.829Z,6.15
2022-08-25T20:10:31.590Z,8.75
2022-08-25T20:15:37.985Z,4.57
2022-08-25T20:20:43.041Z,5.38
2022-08-25T20:25:46.537Z,5.78
2022-08-25T20:30:49.347Z,5.68
2022-08-25T20:40:55.897Z,7.00
2022-08-25T20:46:01.772Z,9.50
2022-08-25T20:51:07.177Z,9.60
2022-08-25T20:56:10.795Z,8.10
2022-08-25T21:01:20.272Z,9.75
2022-08-25T21:06:26.879Z,6.18
2022-08-25T21:11:30.158Z,7.57
2022-08-25T21:16:33.094Z,5.50
2022-08-25T21:21:38.778Z,9.07
2022-08-25T21:26:48.586Z,6.43
2022-08-25T21:31:51.667Z,5.90
2022-08-25T21:36:57.535Z,5.60
2022-08-25T21:42:00.666Z,5.75
2022-08-25T21:47:03.963Z,7.85
2022-08-25T21:52:08.258Z,6.85
2022-08-25T21:57:10.776Z,12.95
2022-08-25T22:02:14.040Z,8.93
2022-08-25T22:07:18.002Z,17.73
2022-08-25T22:12:20.588Z,28.17
2022-08-25T22:17:24.440Z,34.30
2022-08-25T22:22:28.674Z,39.70
2022-08-25T22:27:31.718Z,40.67
2022-08-25T22:32:34.397Z,46.67
2022-08-25T22:37:38.981Z,52.70
2022-08-25T22:42:47.392Z,61.22
2022-08-25T22:47:52.123Z,55.00
2022-08-25T22:52:56.476Z,59.78
2022-08-25T22:57:58.982Z,54.05
2022-08-25T23:03:03.302Z,62.53
2022-08-25T23:08:10.587Z,56.28
2022-08-25T23:13:19.381Z,61.63
2022-08-25T23:18:37.158Z,57.55
2022-08-25T23:23:43.839Z,62.88
2022-08-25T23:28:46.371Z,62.13
2022-08-25T23:33:48.868Z,63.88
2022-08-25T23:38:54.380Z,66.10
2022-08-25T23:43:56.892Z,65.82
2022-08-25T23:48:59.420Z,66.32
2022-08-25T23:59:09.315Z,73.82
